sensor_id;sensor_type;location;lat;lon;timestamp;pressure;altitude;pressure_sealevel;temperature;humidity
31088;BME280;17745;55.914;37.554;2023-04-04T00:01:06;99044.72;;;9.95;70.13
31088;BME280;17745;55.914;37.554;2023-04-04T00:03:35;99033.44;;;10.05;69.65
31088;BME280;17745;55.914;37.554;2023-04-04T00:06:03;99032.16;;;10.12;69.53
31088;BME280;17745;55.914;37.554;2023-04-04T00:08:33;99034.59;;;10.19;69.33
31088;BME280;17745;55.914;37.554;2023-04-04T00:11:03;99028.75;;;10.17;69.33
31088;BME280;17745;55.914;37.554;2023-04-04T00:13:34;99036.09;;;10.10;69.58
31088;BME280;17745;55.914;37.554;2023-04-04T00:16:04;99028.22;;;10.15;69.38
31088;BME280;17745;55.914;37.554;2023-04-04T00:18:32;99026.50;;;9.98;69.80
31088;BME280;17745;55.914;37.554;2023-04-04T00:21:02;99033.47;;;9.77;70.30
31088;BME280;17745;55.914;37.554;2023-04-04T00:23:33;99024.78;;;9.82;69.99
31088;BME280;17745;55.914;37.554;2023-04-04T00:26:02;99040.13;;;9.85;70.02
31088;BME280;17745;55.914;37.554;2023-04-04T00:28:39;99026.75;;;9.97;69.62
31088;BME280;17745;55.914;37.554;2023-04-04T00:31:11;99023.66;;;10.05;69.54
31088;BME280;17745;55.914;37.554;2023-04-04T00:33:42;99022.00;;;9.99;69.67
31088;BME280;17745;55.914;37.554;2023-04-04T00:36:10;99014.78;;;9.89;69.80
31088;BME280;17745;55.914;37.554;2023-04-04T00:38:42;99025.16;;;9.96;69.49
31088;BME280;17745;55.914;37.554;2023-04-04T00:41:12;99022.81;;;9.99;69.43
31088;BME280;17745;55.914;37.554;2023-04-04T00:43:42;99030.00;;;9.71;70.18
31088;BME280;17745;55.914;37.554;2023-04-04T00:46:11;99020.06;;;9.89;69.58
31088;BME280;17745;55.914;37.554;2023-04-04T00:48:43;99029.50;;;9.75;69.88
31088;BME280;17745;55.914;37.554;2023-04-04T00:51:12;99017.63;;;9.50;70.03
31088;BME280;17745;55.914;37.554;2023-04-04T00:53:43;99025.50;;;9.44;70.36
31088;BME280;17745;55.914;37.554;2023-04-04T00:56:12;99023.19;;;9.53;70.08
31088;BME280;17745;55.914;37.554;2023-04-04T00:58:45;99024.41;;;9.68;69.69
31088;BME280;17745;55.914;37.554;2023-04-04T01:01:14;99033.34;;;9.62;69.72
31088;BME280;17745;55.914;37.554;2023-04-04T01:03:42;99030.97;;;9.65;69.59
31088;BME280;17745;55.914;37.554;2023-04-04T01:06:10;99030.75;;;9.67;69.59
31088;BME280;17745;55.914;37.554;2023-04-04T01:08:39;99027.78;;;9.63;69.90
31088;BME280;17745;55.914;37.554;2023-04-04T01:11:09;99031.16;;;9.58;69.71
31088;BME280;17745;55.914;37.554;2023-04-04T01:13:37;99030.94;;;9.60;69.51
31088;BME280;17745;55.914;37.554;2023-04-04T01:16:09;99026.91;;;9.52;69.57
31088;BME280;17745;55.914;37.554;2023-04-04T01:18:39;99030.59;;;9.51;69.68
31088;BME280;17745;55.914;37.554;2023-04-04T01:21:10;99032.63;;;9.44;69.74
31088;BME280;17745;55.914;37.554;2023-04-04T01:23:48;99029.84;;;9.56;69.43
31088;BME280;17745;55.914;37.554;2023-04-04T01:26:21;99030.38;;;9.58;69.56
31088;BME280;17745;55.914;37.554;2023-04-04T01:28:53;99026.94;;;9.57;69.45
31088;BME280;17745;55.914;37.554;2023-04-04T01:31:39;99019.84;;;9.63;69.39
31088;BME280;17745;55.914;37.554;2023-04-04T01:34:13;99021.88;;;9.51;69.65
31088;BME280;17745;55.914;37.554;2023-04-04T01:36:47;99024.22;;;9.47;69.63
31088;BME280;17745;55.914;37.554;2023-04-04T01:39:21;99018.41;;;9.50;69.53
31088;BME280;17745;55.914;37.554;2023-04-04T01:41:52;99017.69;;;9.55;69.36
31088;BME280;17745;55.914;37.554;2023-04-04T01:44:21;99017.63;;;9.50;69.34
31088;BME280;17745;55.914;37.554;2023-04-04T01:46:52;99017.72;;;9.60;69.19
31088;BME280;17745;55.914;37.554;2023-04-04T01:49:20;99017.13;;;9.53;69.25
31088;BME280;17745;55.914;37.554;2023-04-04T01:51:49;99013.25;;;9.61;69.00
31088;BME280;17745;55.914;37.554;2023-04-04T01:54:19;99015.06;;;9.60;69.13
31088;BME280;17745;55.914;37.554;2023-04-04T01:56:47;99011.50;;;9.44;69.45
31088;BME280;17745;55.914;37.554;2023-04-04T01:59:17;99004.16;;;9.24;69.72
31088;BME280;17745;55.914;37.554;2023-04-04T02:01:49;99005.16;;;9.18;69.80
31088;BME280;17745;55.914;37.554;2023-04-04T02:04:20;99006.75;;;9.19;69.74
31088;BME280;17745;55.914;37.554;2023-04-04T02:06:51;99007.69;;;9.35;69.28
31088;BME280;17745;55.914;37.554;2023-04-04T02:09:22;99009.63;;;9.44;69.15
31088;BME280;17745;55.914;37.554;2023-04-04T02:11:53;99011.47;;;9.39;69.32
31088;BME280;17745;55.914;37.554;2023-04-04T02:14:25;99010.13;;;9.41;69.19
31088;BME280;17745;55.914;37.554;2023-04-04T02:16:53;99015.75;;;9.45;69.12
31088;BME280;17745;55.914;37.554;2023-04-04T02:19:36;99016.00;;;9.49;68.99
31088;BME280;17745;55.914;37.554;2023-04-04T02:22:30;99015.53;;;9.52;68.94
31088;BME280;17745;55.914;37.554;2023-04-04T02:25:06;99007.09;;;9.55;68.74
31088;BME280;17745;55.914;37.554;2023-04-04T02:27:34;99022.06;;;9.44;68.93
31088;BME280;17745;55.914;37.554;2023-04-04T02:30:10;99017.84;;;9.43;69.00
31088;BME280;17745;55.914;37.554;2023-04-04T02:32:38;99021.41;;;9.59;68.63
31088;BME280;17745;55.914;37.554;2023-04-04T02:35:11;99021.06;;;9.50;68.79
31088;BME280;17745;55.914;37.554;2023-04-04T02:37:43;99020.53;;;9.48;68.93
31088;BME280;17745;55.914;37.554;2023-04-04T02:40:16;99015.00;;;9.50;68.74
31088;BME280;17745;55.914;37.554;2023-04-04T02:42:44;99011.16;;;9.63;68.69
31088;BME280;17745;55.914;37.554;2023-04-04T02:45:13;99019.91;;;9.68;68.57
31088;BME280;17745;55.914;37.554;2023-04-04T02:47:48;99016.50;;;9.73;68.54
31088;BME280;17745;55.914;37.554;2023-04-04T02:50:17;99009.94;;;9.76;68.42
31088;BME280;17745;55.914;37.554;2023-04-04T02:52:49;99015.19;;;9.70;68.30
31088;BME280;17745;55.914;37.554;2023-04-04T02:55:20;99011.00;;;9.75;68.31
31088;BME280;17745;55.914;37.554;2023-04-04T02:57:50;99005.91;;;9.68;68.38
31088;BME280;17745;55.914;37.554;2023-04-04T03:00:22;99010.84;;;9.59;68.38
31088;BME280;17745;55.914;37.554;2023-04-04T03:02:58;99012.44;;;9.60;68.39
31088;BME280;17745;55.914;37.554;2023-04-04T03:05:29;99006.94;;;9.67;68.36
31088;BME280;17745;55.914;37.554;2023-04-04T03:07:59;99013.81;;;9.68;68.19
31088;BME280;17745;55.914;37.554;2023-04-04T03:10:29;98999.31;;;9.70;68.15
31088;BME280;17745;55.914;37.554;2023-04-04T03:12:57;99007.31;;;9.81;68.32
31088;BME280;17745;55.914;37.554;2023-04-04T03:15:28;99003.91;;;9.80;68.00
31088;BME280;17745;55.914;37.554;2023-04-04T03:17:57;99017.87;;;9.76;67.82
31088;BME280;17745;55.914;37.554;2023-04-04T03:20:26;99016.13;;;9.59;67.92
31088;BME280;17745;55.914;37.554;2023-04-04T03:22:54;99009.75;;;9.55;68.13
31088;BME280;17745;55.914;37.554;2023-04-04T03:25:22;99016.81;;;9.49;68.16
31088;BME280;17745;55.914;37.554;2023-04-04T03:27:54;99019.72;;;9.48;68.04
31088;BME280;17745;55.914;37.554;2023-04-04T03:30:30;99019.22;;;9.51;67.86
31088;BME280;17745;55.914;37.554;2023-04-04T03:33:09;99013.19;;;9.55;67.78
31088;BME280;17745;55.914;37.554;2023-04-04T03:35:39;99022.41;;;9.53;67.77
31088;BME280;17745;55.914;37.554;2023-04-04T03:38:07;99023.16;;;9.48;67.81
31088;BME280;17745;55.914;37.554;2023-04-04T03:40:35;99018.19;;;9.52;67.70
31088;BME280;17745;55.914;37.554;2023-04-04T03:43:09;99027.84;;;9.41;67.94
31088;BME280;17745;55.914;37.554;2023-04-04T03:45:39;99028.78;;;9.29;68.02
31088;BME280;17745;55.914;37.554;2023-04-04T03:48:08;99028.00;;;9.29;68.19
31088;BME280;17745;55.914;37.554;2023-04-04T03:50:40;99024.72;;;9.44;67.91
31088;BME280;17745;55.914;37.554;2023-04-04T03:53:08;99020.28;;;9.50;67.86
31088;BME280;17745;55.914;37.554;2023-04-04T03:55:41;99024.16;;;9.42;68.02
31088;BME280;17745;55.914;37.554;2023-04-04T03:58:09;99024.09;;;9.37;68.04
31088;BME280;17745;55.914;37.554;2023-04-04T04:00:43;99030.28;;;9.48;67.73
31088;BME280;17745;55.914;37.554;2023-04-04T04:03:14;99031.28;;;9.41;67.88
31088;BME280;17745;55.914;37.554;2023-04-04T04:05:45;99032.63;;;9.44;67.76
31088;BME280;17745;55.914;37.554;2023-04-04T04:08:14;99027.16;;;9.51;67.68
31088;BME280;17745;55.914;37.554;2023-04-04T04:10:43;99024.28;;;9.57;67.73
31088;BME280;17745;55.914;37.554;2023-04-04T04:13:11;99027.94;;;9.51;67.72
31088;BME280;17745;55.914;37.554;2023-04-04T04:15:45;99035.16;;;9.61;67.52
31088;BME280;17745;55.914;37.554;2023-04-04T04:18:16;99029.16;;;9.66;67.82
31088;BME280;17745;55.914;37.554;2023-04-04T04:20:45;99029.50;;;9.47;67.88
31088;BME280;17745;55.914;37.554;2023-04-04T04:23:12;99028.78;;;9.57;67.68
31088;BME280;17745;55.914;37.554;2023-04-04T04:25:43;99025.31;;;9.51;67.68
31088;BME280;17745;55.914;37.554;2023-04-04T04:28:14;99029.00;;;9.50;67.71
31088;BME280;17745;55.914;37.554;2023-04-04T04:30:43;99028.50;;;9.53;67.54
31088;BME280;17745;55.914;37.554;2023-04-04T04:33:13;99027.28;;;9.66;67.64
31088;BME280;17745;55.914;37.554;2023-04-04T04:35:43;99033.97;;;9.74;67.65
31088;BME280;17745;55.914;37.554;2023-04-04T04:38:11;99029.69;;;9.68;67.48
31088;BME280;17745;55.914;37.554;2023-04-04T04:40:43;99037.41;;;9.75;67.38
31088;BME280;17745;55.914;37.554;2023-04-04T04:43:11;99033.72;;;9.76;67.40
31088;BME280;17745;55.914;37.554;2023-04-04T04:45:40;99032.91;;;9.75;67.40
31088;BME280;17745;55.914;37.554;2023-04-04T04:48:08;99041.66;;;9.76;67.48
31088;BME280;17745;55.914;37.554;2023-04-04T04:50:40;99035.06;;;9.78;67.22
31088;BME280;17745;55.914;37.554;2023-04-04T04:53:11;99032.50;;;9.89;67.37
31088;BME280;17745;55.914;37.554;2023-04-04T04:55:46;99036.09;;;9.77;67.23
31088;BME280;17745;55.914;37.554;2023-04-04T04:58:16;99037.25;;;9.86;67.05
31088;BME280;17745;55.914;37.554;2023-04-04T05:00:47;99032.72;;;9.82;67.13
31088;BME280;17745;55.914;37.554;2023-04-04T05:03:15;99033.72;;;9.76;67.12
31088;BME280;17745;55.914;37.554;2023-04-04T05:05:47;99037.50;;;9.85;67.11
31088;BME280;17745;55.914;37.554;2023-04-04T05:08:17;99039.50;;;10.00;67.37
31088;BME280;17745;55.914;37.554;2023-04-04T05:10:46;99032.31;;;9.95;67.30
31088;BME280;17745;55.914;37.554;2023-04-04T05:13:15;99028.94;;;10.05;67.17
31088;BME280;17745;55.914;37.554;2023-04-04T05:15:46;99028.75;;;10.12;67.04
31088;BME280;17745;55.914;37.554;2023-04-04T05:18:17;99019.81;;;10.23;66.91
31088;BME280;17745;55.914;37.554;2023-04-04T05:20:52;99020.88;;;9.90;67.41
31088;BME280;17745;55.914;37.554;2023-04-04T05:23:23;99014.50;;;10.23;67.02
31088;BME280;17745;55.914;37.554;2023-04-04T05:25:53;99014.06;;;10.37;67.03
31088;BME280;17745;55.914;37.554;2023-04-04T05:28:27;99005.94;;;10.43;66.76
31088;BME280;17745;55.914;37.554;2023-04-04T05:30:59;99014.19;;;10.14;66.77
31088;BME280;17745;55.914;37.554;2023-04-04T05:33:29;99000.59;;;10.00;66.81
31088;BME280;17745;55.914;37.554;2023-04-04T05:36:02;99002.00;;;10.13;66.66
31088;BME280;17745;55.914;37.554;2023-04-04T05:38:30;99004.38;;;10.48;66.25
31088;BME280;17745;55.914;37.554;2023-04-04T05:41:08;98996.75;;;10.56;66.12
31088;BME280;17745;55.914;37.554;2023-04-04T05:43:36;99002.31;;;10.60;66.06
31088;BME280;17745;55.914;37.554;2023-04-04T05:46:05;99002.87;;;10.62;65.77
31088;BME280;17745;55.914;37.554;2023-04-04T05:48:35;98990.22;;;10.80;65.60
31088;BME280;17745;55.914;37.554;2023-04-04T05:51:05;99001.22;;;11.14;65.08
31088;BME280;17745;55.914;37.554;2023-04-04T05:53:34;99004.97;;;11.44;64.96
31088;BME280;17745;55.914;37.554;2023-04-04T05:56:02;99015.06;;;11.42;64.43
31088;BME280;17745;55.914;37.554;2023-04-04T05:58:35;99014.03;;;11.64;64.37
31088;BME280;17745;55.914;37.554;2023-04-04T06:01:06;99015.59;;;11.39;64.09
31088;BME280;17745;55.914;37.554;2023-04-04T06:03:35;99016.66;;;11.43;63.89
31088;BME280;17745;55.914;37.554;2023-04-04T06:06:07;99014.28;;;11.47;63.94
31088;BME280;17745;55.914;37.554;2023-04-04T06:08:36;99016.09;;;11.41;64.03
31088;BME280;17745;55.914;37.554;2023-04-04T06:11:04;99010.31;;;11.55;63.70
31088;BME280;17745;55.914;37.554;2023-04-04T06:13:32;99010.31;;;11.60;63.37
31088;BME280;17745;55.914;37.554;2023-04-04T06:16:04;99005.03;;;11.76;63.53
31088;BME280;17745;55.914;37.554;2023-04-04T06:18:33;99009.00;;;11.94;63.36
31088;BME280;17745;55.914;37.554;2023-04-04T06:21:16;99001.03;;;11.83;62.96
31088;BME280;17745;55.914;37.554;2023-04-04T06:24:27;99015.09;;;11.94;62.89
31088;BME280;17745;55.914;37.554;2023-04-04T06:36:33;99016.97;;;12.09;62.44
31088;BME280;17745;55.914;37.554;2023-04-04T06:44:48;99022.69;;;12.73;62.37
31088;BME280;17745;55.914;37.554;2023-04-04T06:48:18;99027.06;;;13.09;61.50
31088;BME280;17745;55.914;37.554;2023-04-04T06:51:34;99024.03;;;13.32;60.51
31088;BME280;17745;55.914;37.554;2023-04-04T06:54:17;99022.59;;;13.50;60.83
31088;BME280;17745;55.914;37.554;2023-04-04T07:00:38;99024.84;;;14.07;59.91
31088;BME280;17745;55.914;37.554;2023-04-04T07:03:06;99022.56;;;13.95;57.61
31088;BME280;17745;55.914;37.554;2023-04-04T07:05:36;99017.22;;;13.95;58.71
31088;BME280;17745;55.914;37.554;2023-04-04T07:08:10;99024.03;;;14.06;58.68
31088;BME280;17745;55.914;37.554;2023-04-04T07:10:38;99014.19;;;14.07;58.65
31088;BME280;17745;55.914;37.554;2023-04-04T07:13:09;99019.28;;;14.03;58.63
31088;BME280;17745;55.914;37.554;2023-04-04T07:15:45;99015.84;;;14.03;58.20
31088;BME280;17745;55.914;37.554;2023-04-04T07:18:16;99014.94;;;14.12;58.10
31088;BME280;17745;55.914;37.554;2023-04-04T07:20:45;99022.06;;;14.22;57.68
31088;BME280;17745;55.914;37.554;2023-04-04T07:23:17;99024.72;;;14.22;56.83
31088;BME280;17745;55.914;37.554;2023-04-04T07:25:50;99025.28;;;14.19;56.17
31088;BME280;17745;55.914;37.554;2023-04-04T07:28:21;99023.75;;;14.37;55.82
31088;BME280;17745;55.914;37.554;2023-04-04T07:30:51;99024.00;;;14.65;55.91
31088;BME280;17745;55.914;37.554;2023-04-04T07:33:22;99030.28;;;14.99;54.94
31088;BME280;17745;55.914;37.554;2023-04-04T07:36:03;99034.72;;;15.28;55.12
31088;BME280;17745;55.914;37.554;2023-04-04T07:38:51;99029.31;;;15.71;54.69
31088;BME280;17745;55.914;37.554;2023-04-04T07:41:21;99023.38;;;15.75;54.43
31088;BME280;17745;55.914;37.554;2023-04-04T07:43:58;99027.63;;;15.76;53.63
31088;BME280;17745;55.914;37.554;2023-04-04T07:46:28;99027.50;;;15.86;53.86
31088;BME280;17745;55.914;37.554;2023-04-04T07:49:29;99029.94;;;15.82;53.10
31088;BME280;17745;55.914;37.554;2023-04-04T07:52:28;99028.78;;;15.89;52.56
31088;BME280;17745;55.914;37.554;2023-04-04T07:55:26;99022.25;;;16.14;52.36
31088;BME280;17745;55.914;37.554;2023-04-04T07:57:58;99017.34;;;16.49;52.42
31088;BME280;17745;55.914;37.554;2023-04-04T08:00:28;99013.69;;;16.59;51.49
31088;BME280;17745;55.914;37.554;2023-04-04T08:03:11;99021.09;;;16.62;51.43
31088;BME280;17745;55.914;37.554;2023-04-04T08:05:40;99017.13;;;16.32;50.04
31088;BME280;17745;55.914;37.554;2023-04-04T08:08:12;99027.22;;;16.35;51.09
31088;BME280;17745;55.914;37.554;2023-04-04T08:10:46;99023.06;;;16.56;51.27
31088;BME280;17745;55.914;37.554;2023-04-04T08:13:27;99032.00;;;16.66;51.01
31088;BME280;17745;55.914;37.554;2023-04-04T08:15:57;99024.06;;;16.89;50.95
31088;BME280;17745;55.914;37.554;2023-04-04T08:18:25;99028.62;;;17.02;49.39
31088;BME280;17745;55.914;37.554;2023-04-04T08:20:54;99023.06;;;16.70;48.42
31088;BME280;17745;55.914;37.554;2023-04-04T08:23:23;99032.00;;;16.66;48.87
31088;BME280;17745;55.914;37.554;2023-04-04T08:25:53;99028.31;;;16.62;48.98
31088;BME280;17745;55.914;37.554;2023-04-04T08:28:26;99030.69;;;16.77;48.74
31088;BME280;17745;55.914;37.554;2023-04-04T08:30:54;99035.53;;;16.89;49.00
31088;BME280;17745;55.914;37.554;2023-04-04T08:33:22;99034.06;;;16.97;49.25
31088;BME280;17745;55.914;37.554;2023-04-04T08:35:51;99039.72;;;17.09;49.12
31088;BME280;17745;55.914;37.554;2023-04-04T08:38:19;99027.94;;;17.10;48.03
31088;BME280;17745;55.914;37.554;2023-04-04T08:40:46;99029.91;;;17.05;48.10
31088;BME280;17745;55.914;37.554;2023-04-04T08:43:23;99024.47;;;16.82;47.48
31088;BME280;17745;55.914;37.554;2023-04-04T08:45:54;99028.22;;;16.39;47.75
31088;BME280;17745;55.914;37.554;2023-04-04T08:48:23;99021.50;;;15.94;47.85
31088;BME280;17745;55.914;37.554;2023-04-04T08:50:51;99027.00;;;15.84;48.47
31088;BME280;17745;55.914;37.554;2023-04-04T08:53:23;99025.06;;;15.70;48.31
31088;BME280;17745;55.914;37.554;2023-04-04T08:55:54;99026.13;;;15.69;48.44
31088;BME280;17745;55.914;37.554;2023-04-04T08:58:25;99026.13;;;15.89;48.85
31088;BME280;17745;55.914;37.554;2023-04-04T09:00:54;99016.00;;;16.05;48.23
31088;BME280;17745;55.914;37.554;2023-04-04T09:03:29;99026.81;;;16.27;47.75
31088;BME280;17745;55.914;37.554;2023-04-04T09:06:01;99025.25;;;16.68;47.73
31088;BME280;17745;55.914;37.554;2023-04-04T09:08:33;99023.28;;;17.02;47.77
31088;BME280;17745;55.914;37.554;2023-04-04T09:11:04;99023.97;;;16.94;47.29
31088;BME280;17745;55.914;37.554;2023-04-04T09:13:36;99028.72;;;16.97;47.19
31088;BME280;17745;55.914;37.554;2023-04-04T09:16:07;99029.78;;;16.96;46.60
31088;BME280;17745;55.914;37.554;2023-04-04T09:18:36;99030.00;;;17.13;46.28
31088;BME280;17745;55.914;37.554;2023-04-04T09:21:33;99043.91;;;17.38;44.70
31088;BME280;17745;55.914;37.554;2023-04-04T09:24:01;99043.91;;;17.38;44.70
31088;BME280;17745;55.914;37.554;2023-04-04T09:26:45;99033.56;;;17.09;45.45
31088;BME280;17745;55.914;37.554;2023-04-04T09:29:16;99045.69;;;17.06;44.82
31088;BME280;17745;55.914;37.554;2023-04-04T09:31:44;99037.94;;;16.77;44.67
31088;BME280;17745;55.914;37.554;2023-04-04T09:34:17;99037.25;;;16.71;44.67
31088;BME280;17745;55.914;37.554;2023-04-04T09:36:46;99039.53;;;16.78;44.87
31088;BME280;17745;55.914;37.554;2023-04-04T09:39:49;99045.53;;;16.83;45.12
31088;BME280;17745;55.914;37.554;2023-04-04T09:42:18;99042.97;;;16.92;44.93
31088;BME280;17745;55.914;37.554;2023-04-04T09:44:52;99039.91;;;16.99;44.37
31088;BME280;17745;55.914;37.554;2023-04-04T09:47:24;99046.25;;;17.17;43.90
31088;BME280;17745;55.914;37.554;2023-04-04T09:49:56;99046.47;;;17.43;44.28
31088;BME280;17745;55.914;37.554;2023-04-04T09:52:26;99045.66;;;17.80;44.58
31088;BME280;17745;55.914;37.554;2023-04-04T09:55:01;99048.81;;;18.27;44.74
31088;BME280;17745;55.914;37.554;2023-04-04T09:57:31;99042.63;;;18.58;44.03
31088;BME280;17745;55.914;37.554;2023-04-04T10:00:00;99043.91;;;18.61;42.98
31088;BME280;17745;55.914;37.554;2023-04-04T10:02:36;99043.81;;;18.75;42.84
31088;BME280;17745;55.914;37.554;2023-04-04T10:05:43;99036.44;;;18.90;42.31
31088;BME280;17745;55.914;37.554;2023-04-04T10:08:20;99043.09;;;19.01;42.64
31088;BME280;17745;55.914;37.554;2023-04-04T10:10:49;99041.56;;;19.26;42.71
31088;BME280;17745;55.914;37.554;2023-04-04T10:13:36;99045.97;;;19.66;43.02
31088;BME280;17745;55.914;37.554;2023-04-04T10:18:53;99036.56;;;20.25;42.58
31088;BME280;17745;55.914;37.554;2023-04-04T10:21:25;99050.34;;;20.33;42.34
31088;BME280;17745;55.914;37.554;2023-04-04T10:23:57;99034.44;;;20.49;42.09
31088;BME280;17745;55.914;37.554;2023-04-04T10:26:46;99036.22;;;20.75;41.34
31088;BME280;17745;55.914;37.554;2023-04-04T10:29:15;99035.50;;;20.65;39.66
31088;BME280;17745;55.914;37.554;2023-04-04T10:31:49;99041.63;;;20.66;40.07
31088;BME280;17745;55.914;37.554;2023-04-04T10:34:24;99037.78;;;20.84;39.63
31088;BME280;17745;55.914;37.554;2023-04-04T10:37:06;99045.84;;;21.14;39.27
31088;BME280;17745;55.914;37.554;2023-04-04T10:39:41;99049.78;;;21.38;38.81
31088;BME280;17745;55.914;37.554;2023-04-04T10:42:14;99045.97;;;21.39;37.87
31088;BME280;17745;55.914;37.554;2023-04-04T10:45:01;99046.41;;;21.20;38.31
31088;BME280;17745;55.914;37.554;2023-04-04T10:47:30;99041.78;;;21.30;37.99
31088;BME280;17745;55.914;37.554;2023-04-04T10:49:59;99047.00;;;21.26;38.01
31088;BME280;17745;55.914;37.554;2023-04-04T10:52:30;99052.34;;;21.13;38.20
31088;BME280;17745;55.914;37.554;2023-04-04T10:55:01;99059.19;;;21.02;38.32
31088;BME280;17745;55.914;37.554;2023-04-04T10:57:32;99049.47;;;20.89;38.08
31088;BME280;17745;55.914;37.554;2023-04-04T11:00:02;99053.81;;;20.72;37.92
31088;BME280;17745;55.914;37.554;2023-04-04T11:02:46;99050.25;;;20.50;38.15
31088;BME280;17745;55.914;37.554;2023-04-04T11:05:19;99051.59;;;20.26;37.77
31088;BME280;17745;55.914;37.554;2023-04-04T11:07:55;99058.75;;;20.13;37.69
31088;BME280;17745;55.914;37.554;2023-04-04T11:10:34;99045.47;;;20.17;37.73
31088;BME280;17745;55.914;37.554;2023-04-04T11:15:57;99043.59;;;20.56;36.62
31088;BME280;17745;55.914;37.554;2023-04-04T11:18:45;99049.75;;;20.57;36.61
31088;BME280;17745;55.914;37.554;2023-04-04T11:21:15;99041.69;;;20.09;35.89
31088;BME280;17745;55.914;37.554;2023-04-04T11:24:13;99028.75;;;19.67;36.37
31088;BME280;17745;55.914;37.554;2023-04-04T11:26:48;99045.03;;;19.27;36.92
31088;BME280;17745;55.914;37.554;2023-04-04T11:29:50;99047.22;;;18.98;37.44
31088;BME280;17745;55.914;37.554;2023-04-04T11:32:40;99047.16;;;18.90;37.83
31088;BME280;17745;55.914;37.554;2023-04-04T11:35:15;99046.47;;;18.75;37.87
31088;BME280;17745;55.914;37.554;2023-04-04T11:38:13;99048.63;;;18.55;37.93
31088;BME280;17745;55.914;37.554;2023-04-04T11:40:55;99061.38;;;18.18;38.33
31088;BME280;17745;55.914;37.554;2023-04-04T11:43:26;99047.00;;;17.91;38.72
31088;BME280;17745;55.914;37.554;2023-04-04T11:46:04;99048.59;;;17.69;38.86
31088;BME280;17745;55.914;37.554;2023-04-04T11:48:34;99058.47;;;17.69;38.99
31088;BME280;17745;55.914;37.554;2023-04-04T11:51:04;99056.72;;;17.64;39.05
31088;BME280;17745;55.914;37.554;2023-04-04T11:53:33;99059.22;;;17.61;39.21
31088;BME280;17745;55.914;37.554;2023-04-04T11:56:00;99057.06;;;17.49;39.71
31088;BME280;17745;55.914;37.554;2023-04-04T11:58:34;99052.50;;;17.49;39.96
31088;BME280;17745;55.914;37.554;2023-04-04T12:01:02;99056.34;;;17.57;40.03
31088;BME280;17745;55.914;37.554;2023-04-04T12:03:31;99047.75;;;17.46;40.05
31088;BME280;17745;55.914;37.554;2023-04-04T12:06:00;99050.16;;;17.48;40.22
31088;BME280;17745;55.914;37.554;2023-04-04T12:08:32;99065.59;;;17.51;40.35
31088;BME280;17745;55.914;37.554;2023-04-04T12:11:03;99063.59;;;17.56;40.40
31088;BME280;17745;55.914;37.554;2023-04-04T12:13:33;99060.38;;;17.68;40.47
31088;BME280;17745;55.914;37.554;2023-04-04T12:16:20;99069.19;;;17.69;40.33
31088;BME280;17745;55.914;37.554;2023-04-04T12:18:49;99064.41;;;17.43;40.55
31088;BME280;17745;55.914;37.554;2023-04-04T12:21:17;99063.75;;;17.37;40.95
31088;BME280;17745;55.914;37.554;2023-04-04T12:23:46;99061.69;;;17.20;41.36
31088;BME280;17745;55.914;37.554;2023-04-04T12:26:17;99068.06;;;17.10;41.61
31088;BME280;17745;55.914;37.554;2023-04-04T12:28:54;99062.87;;;17.14;41.72
31088;BME280;17745;55.914;37.554;2023-04-04T12:31:23;99069.53;;;17.17;41.86
31088;BME280;17745;55.914;37.554;2023-04-04T12:33:52;99076.44;;;17.18;42.02
31088;BME280;17745;55.914;37.554;2023-04-04T12:36:24;99071.81;;;17.09;42.20
31088;BME280;17745;55.914;37.554;2023-04-04T12:38:57;99072.72;;;17.05;42.31
31088;BME280;17745;55.914;37.554;2023-04-04T12:41:26;99078.13;;;16.71;42.95
31088;BME280;17745;55.914;37.554;2023-04-04T12:44:25;99077.72;;;16.78;42.87
31088;BME280;17745;55.914;37.554;2023-04-04T12:46:56;99070.97;;;16.53;43.53
31088;BME280;17745;55.914;37.554;2023-04-04T12:49:29;99082.84;;;16.47;43.81
31088;BME280;17745;55.914;37.554;2023-04-04T12:51:58;99077.22;;;16.48;43.87
31088;BME280;17745;55.914;37.554;2023-04-04T12:54:33;99077.81;;;16.59;43.74
31088;BME280;17745;55.914;37.554;2023-04-04T12:57:06;99086.00;;;16.49;43.99
31088;BME280;17745;55.914;37.554;2023-04-04T13:02:23;99079.06;;;16.34;44.43
31088;BME280;17745;55.914;37.554;2023-04-04T13:04:52;99086.50;;;16.37;44.44
31088;BME280;17745;55.914;37.554;2023-04-04T13:07:24;99086.00;;;16.35;44.42
31088;BME280;17745;55.914;37.554;2023-04-04T13:09:54;99084.31;;;16.39;44.42
31088;BME280;17745;55.914;37.554;2023-04-04T13:12:25;99094.69;;;16.26;44.62
31088;BME280;17745;55.914;37.554;2023-04-04T13:15:02;99095.06;;;16.20;44.95
31088;BME280;17745;55.914;37.554;2023-04-04T13:17:44;99100.56;;;16.09;45.09
31088;BME280;17745;55.914;37.554;2023-04-04T13:20:14;99104.44;;;16.17;45.10
31088;BME280;17745;55.914;37.554;2023-04-04T13:22:43;99098.97;;;16.08;45.28
31088;BME280;17745;55.914;37.554;2023-04-04T13:25:11;99105.62;;;16.11;45.30
31088;BME280;17745;55.914;37.554;2023-04-04T13:27:39;99110.53;;;16.04;45.46
31088;BME280;17745;55.914;37.554;2023-04-04T13:30:10;99112.50;;;15.98;45.49
31088;BME280;17745;55.914;37.554;2023-04-04T13:32:38;99102.81;;;16.02;45.47
31088;BME280;17745;55.914;37.554;2023-04-04T13:35:07;99109.16;;;16.06;45.53
31088;BME280;17745;55.914;37.554;2023-04-04T13:37:37;99113.00;;;16.00;45.59
31088;BME280;17745;55.914;37.554;2023-04-04T13:40:07;99123.38;;;16.01;45.68
31088;BME280;17745;55.914;37.554;2023-04-04T13:42:36;99109.00;;;15.97;45.63
31088;BME280;17745;55.914;37.554;2023-04-04T13:45:06;99120.41;;;16.03;45.69
31088;BME280;17745;55.914;37.554;2023-04-04T13:47:38;99122.31;;;16.03;45.77
31088;BME280;17745;55.914;37.554;2023-04-04T13:50:07;99118.25;;;16.05;45.85